Time;durP1;ratioP1;P1;durP2;ratioP2;P2;SDS_P1;SDS_P2;PMS_P1;PMS_P2;Temp;Humidity;BMP_temperature;BMP_pressure;BME280_temperature;BME280_humidity;BME280_pressure;Samples;Min_cycle;Max_cycle;Signal;HPM_P1;HPM_P2
2021/09/18 00:02:22;;;;;;;22.92;14.05;;;;;;;14.97;100.00;97614.25;4996400;28;20050;-84
2021/09/18 00:04:50;;;;;;;17.17;12.43;;;;;;;15.13;100.00;97630.69;5013584;28;20064;-84
2021/09/18 00:07:17;;;;;;;23.80;13.93;;;;;;;14.67;100.00;97610.19;4997359;28;20049;-84
2021/09/18 00:09:44;;;;;;;23.35;13.43;;;;;;;14.69;100.00;97632.44;4997200;28;20061;-84
2021/09/18 00:12:12;;;;;;;20.95;14.07;;;;;;;14.75;100.00;97642.78;5006738;28;20542;-83
2021/09/18 00:14:46;;;;;;;25.27;14.40;;;;;;;14.68;100.00;97647.22;5012391;28;20046;-84
2021/09/18 00:17:22;;;;;;;27.38;14.02;;;;;;;14.80;100.00;97628.13;4994167;28;20050;-83
2021/09/18 00:19:49;;;;;;;24.02;15.38;;;;;;;14.77;100.00;97648.69;4978900;28;20128;-84
2021/09/18 00:22:23;;;;;;;23.17;15.13;;;;;;;14.67;100.00;97640.19;4995332;28;20089;-83
2021/09/18 00:24:50;;;;;;;28.10;15.73;;;;;;;14.70;100.00;97629.41;4995968;28;20498;-84
2021/09/18 00:27:32;;;;;;;26.40;15.00;;;;;;;14.79;100.00;97631.97;5012556;28;20038;-84
2021/09/18 00:30:01;;;;;;;23.42;14.95;;;;;;;14.90;100.00;97658.44;4963041;23;20131;-80
2021/09/18 00:32:29;;;;;;;23.48;14.13;;;;;;;14.74;100.00;97637.66;4920636;29;20075;-78
2021/09/18 00:34:55;;;;;;;23.65;15.23;;;;;;;14.85;100.00;97642.34;4906582;29;20048;-79
2021/09/18 00:37:22;;;;;;;24.83;14.40;;;;;;;14.73;100.00;97647.78;4938419;29;20051;-81
2021/09/18 00:39:49;;;;;;;24.27;13.65;;;;;;;14.59;100.00;97627.47;4921058;29;20048;-79
2021/09/18 00:42:15;;;;;;;19.00;12.48;;;;;;;14.72;100.00;97638.03;4968594;23;20069;-82
2021/09/18 00:44:42;;;;;;;18.27;12.07;;;;;;;14.73;100.00;97639.63;4995615;28;20061;-83
2021/09/18 00:47:08;;;;;;;24.25;13.20;;;;;;;14.75;100.00;97648.25;4993857;28;20042;-82
2021/09/18 00:49:35;;;;;;;20.92;13.27;;;;;;;14.67;100.00;97649.16;5001402;28;20313;-81
2021/09/18 00:52:02;;;;;;;23.75;12.90;;;;;;;14.57;100.00;97646.06;5012187;28;20049;-80
2021/09/18 00:54:28;;;;;;;31.15;14.50;;;;;;;14.45;100.00;97648.81;5012802;28;20108;-83
2021/09/18 00:56:56;;;;;;;23.05;14.35;;;;;;;14.57;100.00;97654.25;4979300;28;20045;-81
2021/09/18 00:59:23;;;;;;;25.60;15.68;;;;;;;14.50;100.00;97648.59;5013214;28;20453;-82
2021/09/18 01:01:50;;;;;;;24.08;16.77;;;;;;;14.47;100.00;97636.44;4995526;28;20050;-85
2021/09/18 01:04:17;;;;;;;23.63;15.75;;;;;;;14.44;100.00;97649.94;5012289;28;20054;-80
2021/09/18 01:06:44;;;;;;;23.70;16.80;;;;;;;14.49;100.00;97652.44;4979907;28;20168;-85
2021/09/18 01:09:10;;;;;;;25.10;17.25;;;;;;;14.44;100.00;97639.03;5013604;28;20483;-84
2021/09/18 01:11:37;;;;;;;25.90;17.08;;;;;;;14.55;100.00;97643.72;4979776;28;20117;-82
2021/09/18 01:14:04;;;;;;;26.92;16.35;;;;;;;14.42;100.00;97641.31;5013564;28;20050;-82
2021/09/18 01:16:30;;;;;;;25.80;16.55;;;;;;;14.50;100.00;97649.38;4997089;28;20050;-83
2021/09/18 01:18:57;;;;;;;20.73;13.77;;;;;;;14.39;100.00;97650.16;4997416;28;20065;-83
2021/09/18 01:21:24;;;;;;;21.52;13.52;;;;;;;14.37;100.00;97631.44;5014096;28;20041;-84
2021/09/18 01:23:51;;;;;;;21.40;13.57;;;;;;;14.32;100.00;97640.59;4997254;28;20042;-83
2021/09/18 01:26:28;;;;;;;22.70;12.75;;;;;;;14.44;100.00;97650.72;4997504;28;20050;-82
2021/09/18 01:28:55;;;;;;;22.20;11.43;;;;;;;14.37;100.00;97645.06;5015148;28;20466;-83
2021/09/18 01:31:21;;;;;;;20.92;12.15;;;;;;;14.35;100.00;97648.09;5014428;28;20042;-82
2021/09/18 01:33:49;;;;;;;20.75;11.70;;;;;;;14.44;100.00;97648.00;5011851;28;20146;-81
2021/09/18 01:36:16;;;;;;;22.10;11.40;;;;;;;14.37;100.00;97644.25;4994183;28;20057;-82
2021/09/18 01:38:43;;;;;;;18.77;10.77;;;;;;;14.42;100.00;97644.84;4993931;28;20097;-81
2021/09/18 01:41:09;;;;;;;16.20;10.98;;;;;;;14.36;100.00;97635.28;4995376;28;20054;-82
2021/09/18 01:43:36;;;;;;;14.68;10.82;;;;;;;14.41;100.00;97642.44;4994409;28;20057;-82
2021/09/18 01:46:02;;;;;;;17.92;10.77;;;;;;;14.44;100.00;97641.75;5011951;28;20073;-83
2021/09/18 01:48:29;;;;;;;16.75;10.65;;;;;;;14.44;100.00;97633.59;5011125;28;20745;-79
2021/09/18 01:50:59;;;;;;;21.02;11.00;;;;;;;14.44;100.00;97636.31;4993973;28;20564;-82
2021/09/18 01:53:25;;;;;;;16.48;10.57;;;;;;;14.39;100.00;97641.97;5010777;28;20072;-82
2021/09/18 01:55:52;;;;;;;18.52;10.20;;;;;;;14.35;100.00;97644.56;5011572;28;20061;-82
2021/09/18 01:58:19;;;;;;;16.92;9.73;;;;;;;14.31;100.00;97632.78;5011563;28;20386;-82
2021/09/18 02:00:50;;;;;;;16.35;9.73;;;;;;;14.33;100.00;97650.38;4994261;28;20054;-82
2021/09/18 02:03:17;;;;;;;14.82;9.57;;;;;;;14.29;100.00;97635.81;5015635;28;20402;-81
2021/09/18 02:05:44;;;;;;;17.67;9.55;;;;;;;14.25;100.00;97639.53;5014026;28;20104;-83
2021/09/18 02:08:11;;;;;;;14.15;9.18;;;;;;;14.41;100.00;97636.97;4997111;28;20093;-81
2021/09/18 02:10:40;;;;;;;13.75;8.88;;;;;;;14.33;100.00;97635.97;4997277;28;20033;-85
2021/09/18 02:13:09;;;;;;;17.40;8.13;;;;;;;14.31;100.00;97632.78;4998055;28;20045;-82
2021/09/18 02:15:36;;;;;;;12.30;7.10;;;;;;;14.28;100.00;97638.88;5015856;28;20506;-81
2021/09/18 02:18:04;;;;;;;10.52;6.45;;;;;;;14.44;100.00;97639.84;4997598;28;20458;-80
2021/09/18 02:20:32;;;;;;;8.40;6.07;;;;;;;14.50;100.00;97641.22;5014566;28;20034;-80
2021/09/18 02:22:59;;;;;;;10.38;5.65;;;;;;;14.48;100.00;97637.25;4982986;28;20046;-82
2021/09/18 02:25:27;;;;;;;11.48;5.53;;;;;;;14.43;100.00;97627.34;4997875;28;20050;-81
2021/09/18 02:27:53;;;;;;;9.52;5.40;;;;;;;14.50;100.00;97630.31;4999305;28;20037;-83
2021/09/18 02:30:23;;;;;;;6.32;3.88;;;;;;;14.32;100.00;97631.66;5016345;28;20049;-83
2021/09/18 02:32:51;;;;;;;11.05;4.00;;;;;;;14.16;100.00;97625.25;5015530;28;20045;-82
2021/09/18 02:35:19;;;;;;;6.30;4.43;;;;;;;14.25;100.00;97629.44;4998288;28;20046;-83
2021/09/18 02:37:47;;;;;;;10.75;4.57;;;;;;;14.32;100.00;97632.44;5015268;28;20046;-82
2021/09/18 02:40:15;;;;;;;7.35;3.67;;;;;;;14.19;100.00;97630.81;5016402;28;20402;-82
2021/09/18 02:42:47;;;;;;;7.97;3.35;;;;;;;14.05;100.00;97634.97;5015903;28;20052;-83
2021/09/18 02:45:14;;;;;;;7.38;3.15;;;;;;;14.13;100.00;97631.38;4999639;28;20046;-84
2021/09/18 02:47:41;;;;;;;10.25;3.10;;;;;;;14.12;100.00;97625.13;5016452;28;20080;-85
2021/09/18 02:50:10;;;;;;;12.52;3.03;;;;;;;14.14;100.00;97632.97;4998121;28;20050;-83
2021/09/18 02:52:39;;;;;;;6.80;3.17;;;;;;;14.29;100.00;97607.78;5014190;28;20077;-82
2021/09/18 02:55:07;;;;;;;8.25;2.88;;;;;;;14.38;100.00;97629.47;5015317;28;20053;-83
2021/09/18 02:57:34;;;;;;;9.25;3.15;;;;;;;14.13;100.00;97617.75;4978838;28;20136;-82
2021/09/18 03:00:02;;;;;;;5.80;3.25;;;;;;;14.04;100.00;97622.50;5012271;28;20038;-82
2021/09/18 03:02:29;;;;;;;5.18;2.88;;;;;;;14.12;100.00;97630.56;5015406;28;20050;-81
2021/09/18 03:04:56;;;;;;;7.32;2.70;;;;;;;13.91;100.00;97621.66;4997819;28;20057;-83
2021/09/18 03:07:22;;;;;;;5.35;2.90;;;;;;;13.94;100.00;97614.75;5015800;28;20072;-81
2021/09/18 03:09:49;;;;;;;7.43;3.10;;;;;;;13.94;100.00;97612.03;4998119;28;20089;-82
2021/09/18 03:12:15;;;;;;;4.03;2.30;;;;;;;14.00;100.00;97610.69;4995025;28;20046;-84
2021/09/18 03:14:42;;;;;;;4.60;2.38;;;;;;;14.02;100.00;97609.22;5031980;28;20045;-86
2021/09/18 03:17:08;;;;;;;12.75;2.75;;;;;;;14.03;100.00;97607.31;5020062;28;20049;-85
2021/09/18 03:19:35;;;;;;;5.97;2.42;;;;;;;14.09;100.00;97604.00;5024132;28;20040;-85
2021/09/18 03:22:02;;;;;;;5.95;2.38;;;;;;;13.95;100.00;97605.47;5020141;28;20080;-82
2021/09/18 03:24:28;;;;;;;4.10;2.13;;;;;;;13.92;100.00;97604.22;5035044;28;20076;-81
2021/09/18 03:26:56;;;;;;;5.25;2.13;;;;;;;13.87;100.00;97592.75;5017424;28;20045;-81
2021/09/18 03:29:24;;;;;;;5.45;1.90;;;;;;;13.99;100.00;97603.69;5034416;28;20112;-82
2021/09/18 03:31:50;;;;;;;4.00;1.60;;;;;;;13.92;100.00;97606.13;5034912;28;20072;-81
2021/09/18 03:34:17;;;;;;;9.80;2.08;;;;;;;13.98;100.00;97610.25;5016910;28;20049;-81
2021/09/18 03:36:44;;;;;;;5.50;1.70;;;;;;;13.90;100.00;97600.25;5035012;28;20188;-80
2021/09/18 03:39:11;;;;;;;6.10;1.77;;;;;;;13.92;100.00;97603.41;5033182;28;20056;-82
2021/09/18 03:41:37;;;;;;;8.70;2.10;;;;;;;13.83;100.00;97600.00;5017429;28;20050;-84
2021/09/18 03:44:04;;;;;;;3.63;2.10;;;;;;;13.91;100.00;97608.06;5036910;28;20045;-81
2021/09/18 03:46:31;;;;;;;4.18;2.50;;;;;;;13.84;100.00;97601.56;5018869;28;20052;-83
2021/09/18 03:48:57;;;;;;;4.85;2.45;;;;;;;13.77;100.00;97602.13;5018513;28;20564;-84
2021/09/18 03:51:24;;;;;;;5.57;2.70;;;;;;;13.92;100.00;97606.94;5036232;28;20041;-83
2021/09/18 03:53:50;;;;;;;5.32;2.53;;;;;;;13.78;100.00;97603.75;5036160;28;20042;-83
2021/09/18 03:56:17;;;;;;;6.20;2.75;;;;;;;13.90;100.00;97616.56;5020115;28;20075;-84
2021/09/18 03:58:44;;;;;;;5.05;2.90;;;;;;;13.87;100.00;97612.59;5019315;28;20137;-84
2021/09/18 04:01:11;;;;;;;5.25;3.00;;;;;;;13.80;100.00;97614.28;5001569;28;20551;-84
2021/09/18 04:03:37;;;;;;;7.40;3.60;;;;;;;13.77;100.00;97606.78;5018400;28;20576;-84
2021/09/18 04:06:04;;;;;;;5.97;3.20;;;;;;;13.85;100.00;97619.50;5019661;28;20045;-82
2021/09/18 04:08:31;;;;;;;8.93;3.30;;;;;;;13.80;100.00;97622.44;5037205;28;20140;-84
2021/09/18 04:10:57;;;;;;;7.15;3.42;;;;;;;13.75;100.00;97626.94;5036877;28;20038;-83
2021/09/18 04:13:24;;;;;;;7.68;3.92;;;;;;;13.81;100.00;97629.47;5019620;28;20052;-83
2021/09/18 04:15:50;;;;;;;10.60;3.88;;;;;;;13.86;100.00;97632.75;5003228;28;20053;-81
2021/09/18 04:18:17;;;;;;;8.68;3.95;;;;;;;13.84;100.00;97631.50;5019950;28;20514;-83
2021/09/18 04:20:46;;;;;;;8.20;3.50;;;;;;;13.83;100.00;97622.56;5038832;28;20041;-82
2021/09/18 04:23:13;;;;;;;7.43;3.55;;;;;;;13.68;100.00;97617.75;5041671;28;20052;-86
2021/09/18 04:25:39;;;;;;;6.03;4.07;;;;;;;13.70;100.00;97615.50;5036651;28;20037;-85
2021/09/18 04:28:06;;;;;;;7.15;3.00;;;;;;;13.68;100.00;97623.97;5039045;28;20025;-85
2021/09/18 04:30:33;;;;;;;7.63;3.30;;;;;;;13.79;100.00;97629.81;5056061;28;20033;-85
2021/09/18 04:33:00;;;;;;;8.40;3.75;;;;;;;13.75;100.00;97635.09;5038903;28;20045;-81
2021/09/18 04:35:28;;;;;;;9.88;3.60;;;;;;;13.69;100.00;97628.31;5041608;28;20037;-82
2021/09/18 04:37:55;;;;;;;7.70;3.38;;;;;;;13.76;100.00;97635.91;5038372;28;20468;-84
2021/09/18 04:40:21;;;;;;;5.20;3.10;;;;;;;13.69;100.00;97639.19;5018863;28;20042;-84
2021/09/18 04:42:48;;;;;;;6.35;3.75;;;;;;;13.66;100.00;97639.84;5036204;28;20045;-84
2021/09/18 04:45:14;;;;;;;6.40;2.97;;;;;;;13.75;100.00;97640.53;5018984;28;20119;-82
2021/09/18 04:47:41;;;;;;;6.55;2.67;;;;;;;13.72;100.00;97638.53;5035891;28;20179;-83
2021/09/18 04:50:08;;;;;;;8.55;2.90;;;;;;;13.59;100.00;97650.47;5017362;28;20439;-83
2021/09/18 04:52:35;;;;;;;6.88;2.45;;;;;;;13.53;100.00;97635.50;5036628;28;20107;-84
2021/09/18 04:55:03;;;;;;;7.22;2.40;;;;;;;13.61;100.00;97637.34;5038143;28;20060;-83
2021/09/18 04:57:30;;;;;;;4.68;1.80;;;;;;;13.50;100.00;97644.31;5036758;28;20048;-83
2021/09/18 04:59:57;;;;;;;8.93;2.28;;;;;;;13.60;100.00;97630.28;5033234;28;20047;-83
2021/09/18 05:02:25;;;;;;;4.70;2.13;;;;;;;13.65;100.00;97635.53;5033723;28;20037;-82
2021/09/18 05:04:52;;;;;;;5.75;2.15;;;;;;;13.53;100.00;97651.00;5034837;28;20045;-83
2021/09/18 05:07:18;;;;;;;3.90;1.77;;;;;;;13.60;100.00;97652.06;5035122;28;20495;-82
2021/09/18 05:09:45;;;;;;;7.70;2.28;;;;;;;13.70;100.00;97651.63;5033345;28;20045;-84
2021/09/18 05:12:11;;;;;;;7.07;2.42;;;;;;;13.69;100.00;97643.81;5016567;28;20046;-82
2021/09/18 05:14:38;;;;;;;3.05;2.30;;;;;;;13.75;100.00;97653.38;4995474;28;20038;-84
2021/09/18 05:17:05;;;;;;;5.65;2.42;;;;;;;13.77;100.00;97653.84;4981237;28;20059;-83
2021/09/18 05:19:32;;;;;;;5.35;2.30;;;;;;;13.82;100.00;97658.25;5011525;28;20042;-83
2021/09/18 05:21:59;;;;;;;9.27;2.58;;;;;;;13.66;100.00;97649.94;4972893;28;20038;-83
2021/09/18 05:24:27;;;;;;;5.60;2.25;;;;;;;13.63;100.00;97651.41;4993468;28;20057;-82
2021/09/18 05:26:55;;;;;;;7.30;2.38;;;;;;;13.70;100.00;97648.91;4979599;28;20074;-83
2021/09/18 05:29:23;;;;;;;6.55;2.40;;;;;;;13.74;100.00;97658.03;4978724;28;20518;-83
2021/09/18 05:31:50;;;;;;;11.80;2.17;;;;;;;13.70;100.00;97656.31;4979001;28;20411;-82
2021/09/18 05:34:17;;;;;;;3.05;2.22;;;;;;;13.70;100.00;97659.81;4995623;28;20052;-83
2021/09/18 05:36:47;;;;;;;4.05;2.17;;;;;;;13.69;100.00;97660.94;4982223;28;20060;-82
2021/09/18 05:39:13;;;;;;;9.15;1.83;;;;;;;13.72;100.00;97659.50;5015611;28;20062;-84
2021/09/18 05:41:40;;;;;;;7.93;2.70;;;;;;;13.76;100.00;97665.84;4998236;28;20061;-83
2021/09/18 05:44:07;;;;;;;3.55;1.88;;;;;;;13.79;100.00;97669.81;4999790;28;20049;-84
2021/09/18 05:46:33;;;;;;;5.57;1.92;;;;;;;13.70;100.00;97669.91;5001114;28;20052;-83
2021/09/18 05:49:00;;;;;;;6.28;2.03;;;;;;;13.86;100.00;97672.81;5018346;28;20056;-82
2021/09/18 05:51:27;;;;;;;4.28;2.05;;;;;;;13.93;100.00;97676.56;5000386;28;20469;-81
2021/09/18 05:53:54;;;;;;;3.45;1.88;;;;;;;13.93;100.00;97679.31;4999667;28;20061;-84
2021/09/18 05:56:20;;;;;;;7.03;2.13;;;;;;;14.15;100.00;97675.38;5017962;28;20072;-82
2021/09/18 05:59:02;;;;;;;7.55;2.40;;;;;;;13.94;100.00;97674.63;5011153;28;20076;-81
2021/09/18 06:01:29;;;;;;;6.22;2.10;;;;;;;13.98;100.00;97683.72;5006792;28;20053;-83
2021/09/18 06:03:56;;;;;;;3.97;1.85;;;;;;;13.98;100.00;97681.81;5011504;28;20054;-80
2021/09/18 06:06:23;;;;;;;4.50;2.00;;;;;;;14.26;100.00;97685.50;5029755;28;20082;-79
2021/09/18 06:08:50;;;;;;;3.40;1.77;;;;;;;14.11;100.00;97680.72;5029899;28;20185;-78
2021/09/18 06:11:16;;;;;;;4.32;1.90;;;;;;;14.13;100.00;97688.53;5029784;28;20042;-79
2021/09/18 06:13:43;;;;;;;5.80;2.10;;;;;;;14.09;100.00;97690.34;5028529;28;20075;-82
2021/09/18 06:16:13;;;;;;;7.22;2.10;;;;;;;14.07;100.00;97679.78;5020314;28;20125;-81
2021/09/18 06:18:40;;;;;;;5.38;1.90;;;;;;;13.87;100.00;97693.44;5002435;28;20042;-80
2021/09/18 06:21:07;;;;;;;7.28;1.90;;;;;;;14.06;100.00;97689.09;4998645;28;20045;-83
2021/09/18 06:23:37;;;;;;;3.92;2.28;;;;;;;14.24;100.00;97690.50;4998073;28;20112;-82
2021/09/18 06:26:05;;;;;;;3.80;2.15;;;;;;;14.09;100.00;97696.56;5013181;28;20045;-78
2021/09/18 06:28:31;;;;;;;3.55;1.73;;;;;;;14.34;100.00;97695.56;5013274;28;20383;-80
2021/09/18 06:30:58;;;;;;;5.57;2.20;;;;;;;14.40;100.00;97693.38;5000381;23;20051;-82
2021/09/18 06:33:25;;;;;;;2.63;1.70;;;;;;;14.22;100.00;97684.59;4942635;29;20066;-85
2021/09/18 06:35:52;;;;;;;3.95;1.58;;;;;;;14.30;100.00;97691.88;4926905;29;20040;-84
2021/09/18 06:38:22;;;;;;;4.57;1.55;;;;;;;14.54;100.00;97687.63;4944948;29;20085;-83
2021/09/18 06:40:50;;;;;;;5.93;1.67;;;;;;;14.64;100.00;97692.63;4944294;29;20043;-82
2021/09/18 06:43:18;;;;;;;6.80;1.70;;;;;;;14.38;100.00;97684.75;4925377;29;20119;-83
2021/09/18 06:45:45;;;;;;;2.63;1.55;;;;;;;14.47;100.00;97679.22;4928071;29;20047;-82
2021/09/18 06:48:12;;;;;;;4.15;1.38;;;;;;;14.66;100.00;97693.88;4929433;29;20051;-86
2021/09/18 06:50:39;;;;;;;2.60;1.27;;;;;;;14.63;100.00;97694.56;4940879;29;20047;-82
2021/09/18 06:53:07;;;;;;;1.80;1.10;;;;;;;14.43;100.00;97690.00;4924830;29;20535;-83
2021/09/18 06:55:36;;;;;;;3.58;1.42;;;;;;;14.55;100.00;97695.47;4924328;29;20051;-83
2021/09/18 06:58:03;;;;;;;3.55;1.10;;;;;;;14.75;100.00;97680.16;4924260;29;20055;-83
2021/09/18 07:00:31;;;;;;;3.83;1.35;;;;;;;14.64;100.00;97692.63;4923165;29;20043;-84
2021/09/18 07:02:58;;;;;;;1.88;1.20;;;;;;;15.01;100.00;97698.88;4923260;29;20079;-83
2021/09/18 07:05:25;;;;;;;4.10;1.55;;;;;;;15.01;100.00;97694.22;4942249;29;20140;-83
2021/09/18 07:07:52;;;;;;;3.15;1.23;;;;;;;14.95;100.00;97696.38;4922684;29;20058;-83
2021/09/18 07:10:18;;;;;;;4.80;1.67;;;;;;;15.17;100.00;97702.50;4923318;29;20119;-82
2021/09/18 07:12:48;;;;;;;4.07;1.00;;;;;;;14.86;100.00;97703.91;4939531;29;20050;-83
2021/09/18 07:15:16;;;;;;;2.30;0.93;;;;;;;14.94;100.00;97702.19;4923786;29;20051;-81
2021/09/18 07:17:42;;;;;;;1.30;0.98;;;;;;;14.94;100.00;97710.38;4939594;29;20051;-82
2021/09/18 07:20:10;;;;;;;6.15;1.30;;;;;;;15.08;100.00;97713.53;4922787;29;20071;-82
2021/09/18 07:22:39;;;;;;;1.38;0.80;;;;;;;14.95;100.00;97704.56;4938466;29;20039;-82
2021/09/18 07:25:07;;;;;;;2.38;0.70;;;;;;;15.08;100.00;97712.72;4921625;29;20047;-82
2021/09/18 07:27:37;;;;;;;1.73;0.85;;;;;;;15.32;100.00;97710.00;4939586;29;20092;-84
2021/09/18 07:30:06;;;;;;;4.93;0.88;;;;;;;15.19;100.00;97708.41;4940791;29;20047;-84
2021/09/18 07:32:32;;;;;;;2.42;0.88;;;;;;;15.48;100.00;97703.53;4922886;29;20057;-82
2021/09/18 07:35:05;;;;;;;3.28;1.10;;;;;;;15.58;100.00;97713.16;4923369;29;20488;-82
2021/09/18 07:37:34;;;;;;;2.83;0.70;;;;;;;15.71;100.00;97716.63;4957064;29;20131;-81
2021/09/18 07:40:02;;;;;;;2.05;0.90;;;;;;;15.65;100.00;97712.56;4924395;29;20047;-84
2021/09/18 07:42:29;;;;;;;2.00;1.10;;;;;;;15.73;100.00;97720.59;4922088;29;20518;-82
2021/09/18 07:44:58;;;;;;;2.03;0.77;;;;;;;15.80;100.00;97720.81;4921882;29;20051;-83
2021/09/18 07:47:25;;;;;;;2.15;0.93;;;;;;;15.75;100.00;97722.97;4921385;29;20061;-82
2021/09/18 07:49:51;;;;;;;1.40;0.80;;;;;;;15.77;100.00;97721.50;4921695;28;20051;-83
2021/09/18 07:52:18;;;;;;;1.95;1.35;;;;;;;15.73;100.00;97719.81;4937498;29;20046;-84
2021/09/18 07:54:46;;;;;;;1.45;1.10;;;;;;;15.64;100.00;97714.47;4938743;29;20134;-83
2021/09/18 07:57:32;;;;;;;8.35;1.20;;;;;;;16.03;100.00;97716.41;4925042;29;20071;-82
2021/09/18 08:00:00;;;;;;;1.92;1.20;;;;;;;16.26;100.00;97721.31;4921113;29;20055;-85
2021/09/18 08:02:26;;;;;;;2.20;1.17;;;;;;;16.25;100.00;97719.72;4921126;29;20055;-83
2021/09/18 08:04:53;;;;;;;0.65;0.52;;;;;;;16.25;100.00;97712.31;4920987;29;20055;-82
2021/09/18 08:07:21;;;;;;;1.40;0.60;;;;;;;15.93;100.00;97718.81;4920762;29;20488;-83
2021/09/18 08:09:49;;;;;;;0.82;0.50;;;;;;;16.05;100.00;97718.78;4921626;28;20051;-82
2021/09/18 08:12:16;;;;;;;1.48;0.60;;;;;;;16.02;100.00;97730.41;4938532;29;20126;-82
2021/09/18 08:14:43;;;;;;;1.85;0.57;;;;;;;16.01;100.00;97720.63;4938252;29;20138;-83
2021/09/18 08:17:10;;;;;;;2.80;0.60;;;;;;;16.14;100.00;97712.03;4953877;29;20412;-82
2021/09/18 08:19:36;;;;;;;1.60;0.60;;;;;;;16.13;100.00;97718.63;4936793;28;20110;-84
2021/09/18 08:22:03;;;;;;;1.05;0.60;;;;;;;16.03;100.00;97729.25;4937568;29;20456;-83
2021/09/18 08:24:30;;;;;;;1.50;0.60;;;;;;;16.13;100.00;97720.59;4923766;29;20047;-82
2021/09/18 08:26:57;;;;;;;0.60;0.50;;;;;;;16.26;100.00;97724.03;4936415;29;20151;-83
2021/09/18 08:29:24;;;;;;;1.42;0.50;;;;;;;16.02;100.00;97719.47;4938116;29;20095;-85
2021/09/18 08:31:50;;;;;;;0.70;0.50;;;;;;;16.51;100.00;97717.28;4932619;29;20058;-84
2021/09/18 08:34:17;;;;;;;4.22;0.90;;;;;;;16.28;100.00;97724.47;4939639;29;20043;-85
2021/09/18 08:36:48;;;;;;;1.83;0.77;;;;;;;16.33;100.00;97725.03;4929807;29;20059;-85
2021/09/18 08:39:19;;;;;;;2.60;0.80;;;;;;;16.46;100.00;97731.22;4947197;29;20043;-85
2021/09/18 08:41:49;;;;;;;4.10;0.80;;;;;;;16.09;100.00;97706.81;4933344;29;20054;-85
2021/09/18 08:44:16;;;;;;;2.10;0.80;;;;;;;16.24;100.00;97727.09;4924704;28;20058;-84
2021/09/18 08:46:43;;;;;;;1.60;0.73;;;;;;;16.29;100.00;97731.50;4924228;29;20054;-85
2021/09/18 08:49:27;;;;;;;4.18;0.68;;;;;;;16.16;100.00;97730.78;4955105;29;20058;-84
2021/09/18 08:51:55;;;;;;;2.60;0.60;;;;;;;16.06;100.00;97723.09;4927355;29;20055;-84
2021/09/18 08:54:22;;;;;;;4.47;0.70;;;;;;;16.23;100.00;97715.38;4937181;29;20058;-84
2021/09/18 08:56:49;;;;;;;2.22;0.90;;;;;;;16.19;100.00;97738.28;4921306;29;20051;-84
2021/09/18 08:59:19;;;;;;;1.95;0.80;;;;;;;16.38;100.00;97729.44;4923031;29;20062;-84
2021/09/18 09:02:11;;;;;;;5.45;0.85;;;;;;;16.46;100.00;97734.75;4922326;29;20047;-83
2021/09/18 09:04:40;;;;;;;2.03;0.90;;;;;;;16.33;100.00;97738.69;4937304;29;20055;-83
2021/09/18 09:07:10;;;;;;;1.48;0.73;;;;;;;16.59;100.00;97736.28;4920307;29;20051;-82
2021/09/18 09:09:57;;;;;;;3.55;1.10;;;;;;;16.48;100.00;97739.84;4937116;28;20055;-83
2021/09/18 09:12:30;;;;;;;4.60;1.10;;;;;;;16.68;100.00;97736.09;4954402;29;20103;-84
2021/09/18 09:15:00;;;;;;;4.90;0.75;;;;;;;16.83;100.00;97738.84;4921211;29;20053;-84
2021/09/18 09:17:32;;;;;;;2.58;0.75;;;;;;;16.89;100.00;97738.59;4936413;29;20059;-83
2021/09/18 09:20:00;;;;;;;2.88;0.90;;;;;;;16.99;100.00;97738.06;4920366;29;20051;-83
2021/09/18 09:22:47;;;;;;;3.10;0.80;;;;;;;17.16;100.00;97746.69;4919717;29;20118;-83
2021/09/18 09:25:38;;;;;;;3.10;1.00;;;;;;;17.35;100.00;97743.22;4936931;29;20419;-83
2021/09/18 09:28:31;;;;;;;4.53;0.88;;;;;;;16.98;100.00;97748.19;4932563;28;20471;-83
2021/09/18 09:31:24;;;;;;;2.60;1.10;;;;;;;16.40;100.00;97727.94;4933172;29;20051;-85
2021/09/18 09:34:06;;;;;;;3.10;1.15;;;;;;;16.25;100.00;97749.75;4931544;29;20043;-84
2021/09/18 09:36:43;;;;;;;3.72;1.00;;;;;;;16.35;100.00;97746.53;4931502;29;20047;-85
2021/09/18 09:39:16;;;;;;;2.88;1.00;;;;;;;16.64;100.00;97729.78;4938894;29;20131;-85
2021/09/18 09:41:55;;;;;;;3.72;1.20;;;;;;;16.62;100.00;97727.38;4930611;29;20059;-85
2021/09/18 09:44:24;;;;;;;3.20;1.30;;;;;;;16.79;100.00;97742.66;4926265;29;20059;-83
2021/09/18 09:47:12;;;;;;;3.28;1.20;;;;;;;16.49;100.00;97742.22;4924516;28;20090;-84
2021/09/18 09:49:53;;;;;;;2.38;1.48;;;;;;;16.18;100.00;97732.03;4927270;28;20047;-85
2021/09/18 09:52:22;;;;;;;3.47;1.30;;;;;;;16.23;100.00;97744.66;4928930;29;20043;-83
2021/09/18 09:55:24;;;;;;;3.40;1.48;;;;;;;16.23;100.00;97724.75;4929431;29;20047;-85
2021/09/18 09:58:12;;;;;;;5.50;1.50;;;;;;;16.45;100.00;97748.75;4940175;28;20059;-85
2021/09/18 10:00:50;;;;;;;2.53;1.48;;;;;;;16.47;100.00;97735.53;4936004;29;20518;-83
2021/09/18 10:03:23;;;;;;;3.60;1.30;;;;;;;16.37;100.00;97728.63;4927767;29;20539;-83
2021/09/18 10:05:52;;;;;;;3.33;1.70;;;;;;;16.68;100.00;97727.91;4924004;29;20051;-84
2021/09/18 10:08:29;;;;;;;4.28;1.83;;;;;;;16.66;100.00;97730.22;4936260;29;20052;-85
2021/09/18 10:11:43;;;;;;;3.95;1.75;;;;;;;16.36;100.00;97745.41;4932494;29;20555;-82
2021/09/18 10:14:53;;;;;;;3.90;1.83;;;;;;;16.06;100.00;97755.88;4936617;29;20051;-85
2021/09/18 10:17:36;;;;;;;2.78;1.90;;;;;;;16.13;100.00;97745.16;4952766;29;20098;-82
2021/09/18 10:25:45;;;;;;;5.70;1.60;;;;;;;15.98;100.00;97733.03;4967383;28;20050;-84
2021/09/18 10:28:30;;;;;;;5.28;1.65;;;;;;;16.48;100.00;97727.00;4960235;29;20063;-83
2021/09/18 10:31:21;;;;;;;6.65;3.40;;;;;;;16.78;100.00;97733.66;4937383;29;20055;-85
2021/09/18 10:33:56;;;;;;;2.35;1.27;;;;;;;16.55;100.00;97749.06;4932545;29;20118;-84
2021/09/18 10:36:31;;;;;;;5.15;1.60;;;;;;;16.90;100.00;97765.59;4940219;28;20067;-83
2021/09/18 10:39:19;;;;;;;3.88;1.80;;;;;;;16.99;100.00;97738.84;4931819;29;20527;-84
2021/09/18 10:41:54;;;;;;;6.97;1.73;;;;;;;16.69;100.00;97752.19;4929341;29;20043;-83
2021/09/18 10:44:44;;;;;;;2.72;1.73;;;;;;;16.73;100.00;97746.78;4924010;29;20055;-85
2021/09/18 10:47:35;;;;;;;5.07;1.98;;;;;;;16.93;100.00;97753.16;4922798;28;20114;-83
2021/09/18 10:50:20;;;;;;;4.35;2.17;;;;;;;16.65;100.00;97754.00;4924022;29;20043;-83
2021/09/18 10:53:09;;;;;;;4.28;2.30;;;;;;;16.50;100.00;97749.28;4924651;29;20047;-85
2021/09/18 10:56:03;;;;;;;4.07;2.10;;;;;;;16.63;100.00;97752.78;4942040;29;20488;-83
2021/09/18 10:58:30;;;;;;;4.65;2.30;;;;;;;16.70;100.00;97758.41;4925528;29;20177;-85
2021/09/18 11:01:00;;;;;;;5.90;2.13;;;;;;;16.62;100.00;97762.13;4924546;29;20051;-82
2021/09/18 11:03:50;;;;;;;6.90;2.17;;;;;;;17.01;100.00;97763.13;4932359;29;20047;-83
2021/09/18 11:06:36;;;;;;;4.82;2.38;;;;;;;16.83;100.00;97752.53;4927056;29;20055;-83
2021/09/18 11:09:04;;;;;;;3.30;2.35;;;;;;;16.67;100.00;97756.41;4930465;29;20070;-84
2021/09/18 11:11:33;;;;;;;4.82;2.58;;;;;;;16.66;100.00;97752.88;4931607;29;20114;-84
2021/09/18 11:14:01;;;;;;;3.72;2.28;;;;;;;16.89;100.00;97757.72;4924608;29;20423;-82
2021/09/18 11:16:43;;;;;;;5.88;2.60;;;;;;;16.74;100.00;97749.19;4930148;29;20043;-83
2021/09/18 11:19:15;;;;;;;6.10;2.45;;;;;;;16.85;100.00;97756.84;4937121;29;20535;-83
2021/09/18 11:21:52;;;;;;;7.65;3.22;;;;;;;16.79;100.00;97765.31;4942920;29;20047;-82
2021/09/18 11:24:25;;;;;;;7.30;3.85;;;;;;;16.66;100.00;97749.34;4941222;29;20039;-84
2021/09/18 11:27:06;;;;;;;6.47;3.72;;;;;;;16.54;100.00;97752.94;4926747;28;20074;-84
2021/09/18 11:29:44;;;;;;;5.85;3.40;;;;;;;16.32;100.00;97753.47;4925923;28;20092;-83
2021/09/18 11:32:33;;;;;;;3.97;2.80;;;;;;;16.26;100.00;97757.59;4928037;29;20119;-83
2021/09/18 11:35:06;;;;;;;6.97;2.95;;;;;;;16.20;100.00;97746.16;4925448;29;20512;-83
2021/09/18 11:37:37;;;;;;;7.57;2.72;;;;;;;16.48;100.00;97735.19;4942058;29;20580;-83
2021/09/18 11:40:08;;;;;;;6.55;3.22;;;;;;;16.73;100.00;97753.03;4925533;29;20079;-82
2021/09/18 11:42:40;;;;;;;7.13;3.13;;;;;;;16.70;100.00;97739.28;4942547;29;20115;-82